Krasnovishersk, Russia
Current Conditions -  °F | °C
As of 8:00 PM on Sunday 21 Dec 2014 (Local Time) from USPP Reporting Station
Overcast Overcast  
Wind Chill: 21°   Ceiling: 1800
Heat Index: 32°   Visibility: 6mi
Dew Point: 32°   Wind: 18mph
Humidity: 100%   Direction: 240°WSW
Pressure: 29.53"   Gusts: NA
Location:  60.4°N, 57.08°E
Report Text: USPP 211500Z 24008MPS 9999 BKN018 OVC070 00/00 Q1000 21390230NOSIG RMK QFE739/0986
Loading
Personal Weather Stations






























Interactive Weather Map New forecast layout! Learn more

10-Day Weather Forecast

Advertisements
Track Severe Weather on mobile